sensor_id;sensor_type;location;lat;lon;timestamp;temperature;humidity
9265;DHT22;4669;49.594;10.958;2023-01-20T05:26:17;0.80;99.90
9265;DHT22;4669;49.594;10.958;2023-01-20T05:31:19;0.80;99.90
9265;DHT22;4669;49.594;10.958;2023-01-20T05:36:21;0.80;99.90
9265;DHT22;4669;49.594;10.958;2023-01-20T05:41:24;0.80;99.90
9265;DHT22;4669;49.594;10.958;2023-01-20T05:46:26;0.90;99.90
9265;DHT22;4669;49.594;10.958;2023-01-20T05:51:28;0.90;99.90
9265;DHT22;4669;49.594;10.958;2023-01-20T05:56:33;0.90;99.90
9265;DHT22;4669;49.594;10.958;2023-01-20T06:01:35;0.80;99.90
9265;DHT22;4669;49.594;10.958;2023-01-20T06:06:37;0.90;99.90
9265;DHT22;4669;49.594;10.958;2023-01-20T06:11:40;0.90;99.90
9265;DHT22;4669;49.594;10.958;2023-01-20T06:16:42;1.00;99.90
9265;DHT22;4669;49.594;10.958;2023-01-20T06:21:46;1.00;99.90
9265;DHT22;4669;49.594;10.958;2023-01-20T06:26:50;1.10;99.90
9265;DHT22;4669;49.594;10.958;2023-01-20T06:31:52;1.10;99.90
9265;DHT22;4669;49.594;10.958;2023-01-20T06:36:54;1.10;99.90
9265;DHT22;4669;49.594;10.958;2023-01-20T06:41:58;1.10;99.90
9265;DHT22;4669;49.594;10.958;2023-01-20T06:47:00;1.00;99.90
9265;DHT22;4669;49.594;10.958;2023-01-20T06:52:02;1.00;99.90
9265;DHT22;4669;49.594;10.958;2023-01-20T06:57:06;0.90;99.90
9265;DHT22;4669;49.594;10.958;2023-01-20T07:02:08;0.90;99.90
9265;DHT22;4669;49.594;10.958;2023-01-20T07:07:11;0.90;99.90
9265;DHT22;4669;49.594;10.958;2023-01-20T07:12:14;0.90;99.90
9265;DHT22;4669;49.594;10.958;2023-01-20T07:17:16;0.90;99.90
9265;DHT22;4669;49.594;10.958;2023-01-20T07:22:18;0.90;99.90
9265;DHT22;4669;49.594;10.958;2023-01-20T07:27:21;0.90;99.90
9265;DHT22;4669;49.594;10.958;2023-01-20T07:32:23;1.00;99.90
9265;DHT22;4669;49.594;10.958;2023-01-20T07:37:25;1.00;99.90
9265;DHT22;4669;49.594;10.958;2023-01-20T07:42:29;1.00;99.90
9265;DHT22;4669;49.594;10.958;2023-01-20T07:47:31;1.00;99.90
9265;DHT22;4669;49.594;10.958;2023-01-20T07:52:32;1.00;99.90
9265;DHT22;4669;49.594;10.958;2023-01-20T07:57:36;1.10;99.90
9265;DHT22;4669;49.594;10.958;2023-01-20T08:02:38;1.10;99.90
9265;DHT22;4669;49.594;10.958;2023-01-20T08:07:40;1.20;99.90
9265;DHT22;4669;49.594;10.958;2023-01-20T08:12:44;1.30;99.90
9265;DHT22;4669;49.594;10.958;2023-01-20T08:17:45;1.30;99.90
9265;DHT22;4669;49.594;10.958;2023-01-20T08:22:47;1.30;99.90
9265;DHT22;4669;49.594;10.958;2023-01-20T08:27:51;1.30;99.90
9265;DHT22;4669;49.594;10.958;2023-01-20T08:32:53;1.40;99.90
9265;DHT22;4669;49.594;10.958;2023-01-20T08:37:55;1.40;99.90
9265;DHT22;4669;49.594;10.958;2023-01-20T08:42:59;1.40;99.90
9265;DHT22;4669;49.594;10.958;2023-01-20T08:48:01;1.50;99.90
9265;DHT22;4669;49.594;10.958;2023-01-20T08:53:02;1.50;99.90
9265;DHT22;4669;49.594;10.958;2023-01-20T08:58:06;1.50;99.90
9265;DHT22;4669;49.594;10.958;2023-01-20T09:03:09;1.50;99.90
9265;DHT22;4669;49.594;10.958;2023-01-20T09:08:11;1.60;99.90
9265;DHT22;4669;49.594;10.958;2023-01-20T09:13:14;1.60;99.90
9265;DHT22;4669;49.594;10.958;2023-01-20T09:18:16;1.60;99.90
9265;DHT22;4669;49.594;10.958;2023-01-20T09:23:18;1.50;99.90
9265;DHT22;4669;49.594;10.958;2023-01-20T09:28:21;1.50;99.90
9265;DHT22;4669;49.594;10.958;2023-01-20T09:33:23;1.50;99.90
9265;DHT22;4669;49.594;10.958;2023-01-20T09:38:26;1.60;99.90
9265;DHT22;4669;49.594;10.958;2023-01-20T09:43:55;1.60;99.90
9265;DHT22;4669;49.594;10.958;2023-01-20T09:49:10;1.60;99.90
9265;DHT22;4669;49.594;10.958;2023-01-20T09:54:39;1.60;99.90
9265;DHT22;4669;49.594;10.958;2023-01-20T09:59:48;1.60;99.90
9265;DHT22;4669;49.594;10.958;2023-01-20T10:04:55;1.70;99.90
9265;DHT22;4669;49.594;10.958;2023-01-20T10:10:02;1.60;99.90
9265;DHT22;4669;49.594;10.958;2023-01-20T10:15:10;1.60;99.90
9265;DHT22;4669;49.594;10.958;2023-01-20T10:20:16;1.80;99.90
9265;DHT22;4669;49.594;10.958;2023-01-20T10:25:22;1.80;99.90
9265;DHT22;4669;49.594;10.958;2023-01-20T10:30:30;1.90;99.90
9265;DHT22;4669;49.594;10.958;2023-01-20T10:35:37;1.90;99.90
9265;DHT22;4669;49.594;10.958;2023-01-20T10:40:43;1.80;99.90
9265;DHT22;4669;49.594;10.958;2023-01-20T10:46:00;1.90;99.90
9265;DHT22;4669;49.594;10.958;2023-01-20T10:51:06;1.90;99.90
9265;DHT22;4669;49.594;10.958;2023-01-20T10:56:25;1.90;99.90
9265;DHT22;4669;49.594;10.958;2023-01-20T11:01:32;2.00;99.90
9265;DHT22;4669;49.594;10.958;2023-01-20T11:06:34;2.10;99.90
9265;DHT22;4669;49.594;10.958;2023-01-20T11:11:36;2.00;99.90
9265;DHT22;4669;49.594;10.958;2023-01-20T11:16:39;2.00;99.90
9265;DHT22;4669;49.594;10.958;2023-01-20T11:21:44;2.00;99.90
9265;DHT22;4669;49.594;10.958;2023-01-20T11:26:48;2.00;99.90
9265;DHT22;4669;49.594;10.958;2023-01-20T11:31:53;2.00;99.90
9265;DHT22;4669;49.594;10.958;2023-01-20T11:37:15;2.10;99.90
9265;DHT22;4669;49.594;10.958;2023-01-20T11:42:19;2.20;99.90
9265;DHT22;4669;49.594;10.958;2023-01-20T11:47:25;2.20;99.90
9265;DHT22;4669;49.594;10.958;2023-01-20T11:52:28;2.20;99.90
9265;DHT22;4669;49.594;10.958;2023-01-20T11:57:30;2.20;99.90
9265;DHT22;4669;49.594;10.958;2023-01-20T12:02:34;2.10;99.90
9265;DHT22;4669;49.594;10.958;2023-01-20T12:07:38;2.10;99.90
9265;DHT22;4669;49.594;10.958;2023-01-20T12:12:46;2.20;99.90
9265;DHT22;4669;49.594;10.958;2023-01-20T12:17:55;2.20;99.90
9265;DHT22;4669;49.594;10.958;2023-01-20T12:23:13;2.30;99.90
9265;DHT22;4669;49.594;10.958;2023-01-20T12:28:27;2.30;99.90
9265;DHT22;4669;49.594;10.958;2023-01-20T12:33:32;2.30;99.90
9265;DHT22;4669;49.594;10.958;2023-01-20T12:38:40;2.20;99.90
9265;DHT22;4669;49.594;10.958;2023-01-20T12:43:55;2.30;99.90
9265;DHT22;4669;49.594;10.958;2023-01-20T12:49:17;2.40;99.90
9265;DHT22;4669;49.594;10.958;2023-01-20T12:54:45;2.40;99.90
9265;DHT22;4669;49.594;10.958;2023-01-20T12:59:56;2.50;99.90
9265;DHT22;4669;49.594;10.958;2023-01-20T13:10:52;2.30;99.90
9265;DHT22;4669;49.594;10.958;2023-01-20T13:16:00;2.20;99.90
9265;DHT22;4669;49.594;10.958;2023-01-20T13:21:08;2.20;99.90
9265;DHT22;4669;49.594;10.958;2023-01-20T13:26:14;2.20;99.90
9265;DHT22;4669;49.594;10.958;2023-01-20T13:31:43;2.20;99.90
9265;DHT22;4669;49.594;10.958;2023-01-20T13:37:33;2.30;99.90
9265;DHT22;4669;49.594;10.958;2023-01-20T13:42:49;2.30;99.90
9265;DHT22;4669;49.594;10.958;2023-01-20T13:47:58;2.30;99.90
9265;DHT22;4669;49.594;10.958;2023-01-20T13:53:03;2.30;99.90
9265;DHT22;4669;49.594;10.958;2023-01-20T13:58:11;2.30;99.90
9265;DHT22;4669;49.594;10.958;2023-01-20T14:03:20;2.30;99.90
9265;DHT22;4669;49.594;10.958;2023-01-20T14:08:23;2.30;99.90
9265;DHT22;4669;49.594;10.958;2023-01-20T14:13:27;2.20;99.90
9265;DHT22;4669;49.594;10.958;2023-01-20T14:18:29;2.10;99.90
9265;DHT22;4669;49.594;10.958;2023-01-20T14:23:35;2.10;99.90
9265;DHT22;4669;49.594;10.958;2023-01-20T14:28:46;2.00;99.90
9265;DHT22;4669;49.594;10.958;2023-01-20T14:33:57;2.10;99.90
9265;DHT22;4669;49.594;10.958;2023-01-20T14:39:01;2.10;99.90
9265;DHT22;4669;49.594;10.958;2023-01-20T14:44:16;2.10;99.90
9265;DHT22;4669;49.594;10.958;2023-01-20T14:49:21;2.00;99.90
9265;DHT22;4669;49.594;10.958;2023-01-20T14:54:34;2.10;99.90
9265;DHT22;4669;49.594;10.958;2023-01-20T14:59:38;2.10;99.90
9265;DHT22;4669;49.594;10.958;2023-01-20T15:04:40;2.00;99.90
9265;DHT22;4669;49.594;10.958;2023-01-20T15:09:49;2.10;99.90
9265;DHT22;4669;49.594;10.958;2023-01-20T15:15:02;2.00;99.90
9265;DHT22;4669;49.594;10.958;2023-01-20T15:20:25;2.10;99.90
9265;DHT22;4669;49.594;10.958;2023-01-20T15:25:27;2.10;99.90
9265;DHT22;4669;49.594;10.958;2023-01-20T15:30:31;2.10;99.90
9265;DHT22;4669;49.594;10.958;2023-01-20T15:35:33;2.10;99.90
9265;DHT22;4669;49.594;10.958;2023-01-20T15:40:35;2.10;99.90
9265;DHT22;4669;49.594;10.958;2023-01-20T15:45:40;2.00;99.90
9265;DHT22;4669;49.594;10.958;2023-01-20T15:50:42;2.00;99.90
9265;DHT22;4669;49.594;10.958;2023-01-20T15:55:48;2.00;99.90
9265;DHT22;4669;49.594;10.958;2023-01-20T16:00:52;1.90;99.90
9265;DHT22;4669;49.594;10.958;2023-01-20T16:05:55;1.80;99.90
9265;DHT22;4669;49.594;10.958;2023-01-20T16:10:57;1.80;99.90
9265;DHT22;4669;49.594;10.958;2023-01-20T16:16:01;1.70;99.90
9265;DHT22;4669;49.594;10.958;2023-01-20T16:21:03;1.70;99.90
9265;DHT22;4669;49.594;10.958;2023-01-20T16:26:17;1.70;99.90
9265;DHT22;4669;49.594;10.958;2023-01-20T16:31:22;1.60;99.90
9265;DHT22;4669;49.594;10.958;2023-01-20T16:36:25;1.60;99.90
9265;DHT22;4669;49.594;10.958;2023-01-20T16:41:28;1.50;99.90
9265;DHT22;4669;49.594;10.958;2023-01-20T16:46:32;1.50;99.90
9265;DHT22;4669;49.594;10.958;2023-01-20T16:51:35;1.50;99.90
9265;DHT22;4669;49.594;10.958;2023-01-20T16:56:38;1.50;99.90
9265;DHT22;4669;49.594;10.958;2023-01-20T17:01:42;1.40;99.90
9265;DHT22;4669;49.594;10.958;2023-01-20T17:06:44;1.30;99.90
9265;DHT22;4669;49.594;10.958;2023-01-20T17:11:46;1.20;99.90
9265;DHT22;4669;49.594;10.958;2023-01-20T17:16:49;1.20;99.90
9265;DHT22;4669;49.594;10.958;2023-01-20T17:21:51;1.20;99.90
9265;DHT22;4669;49.594;10.958;2023-01-20T17:26:54;1.10;99.90
9265;DHT22;4669;49.594;10.958;2023-01-20T17:31:57;1.10;99.90
9265;DHT22;4669;49.594;10.958;2023-01-20T17:36:59;1.10;99.90
9265;DHT22;4669;49.594;10.958;2023-01-20T17:42:01;1.00;99.90
9265;DHT22;4669;49.594;10.958;2023-01-20T17:47:05;1.00;99.90
9265;DHT22;4669;49.594;10.958;2023-01-20T17:52:07;0.90;99.90
9265;DHT22;4669;49.594;10.958;2023-01-20T17:57:09;0.90;99.90
9265;DHT22;4669;49.594;10.958;2023-01-20T18:02:12;0.90;99.90
9265;DHT22;4669;49.594;10.958;2023-01-20T18:07:18;0.90;99.90
9265;DHT22;4669;49.594;10.958;2023-01-20T18:12:19;0.90;99.90
9265;DHT22;4669;49.594;10.958;2023-01-20T18:17:23;0.80;99.90
9265;DHT22;4669;49.594;10.958;2023-01-20T18:22:25;0.70;99.90
9265;DHT22;4669;49.594;10.958;2023-01-20T18:27:27;0.80;99.90
9265;DHT22;4669;49.594;10.958;2023-01-20T18:32:31;0.60;99.90
9265;DHT22;4669;49.594;10.958;2023-01-20T18:37:33;0.60;99.90
9265;DHT22;4669;49.594;10.958;2023-01-20T18:42:35;0.60;99.90
9265;DHT22;4669;49.594;10.958;2023-01-20T18:47:38;0.60;99.90
9265;DHT22;4669;49.594;10.958;2023-01-20T18:52:40;0.50;99.90
9265;DHT22;4669;49.594;10.958;2023-01-20T18:57:43;0.60;99.90
9265;DHT22;4669;49.594;10.958;2023-01-20T19:02:50;0.60;99.90
9265;DHT22;4669;49.594;10.958;2023-01-20T19:07:52;0.50;99.90
9265;DHT22;4669;49.594;10.958;2023-01-20T19:12:54;0.50;99.90
9265;DHT22;4669;49.594;10.958;2023-01-20T19:17:58;0.50;99.90
9265;DHT22;4669;49.594;10.958;2023-01-20T19:22:59;0.50;99.90
9265;DHT22;4669;49.594;10.958;2023-01-20T19:28:02;0.40;99.90
9265;DHT22;4669;49.594;10.958;2023-01-20T19:33:06;0.40;99.90
9265;DHT22;4669;49.594;10.958;2023-01-20T19:38:11;0.30;99.90
9265;DHT22;4669;49.594;10.958;2023-01-20T19:43:14;0.30;99.90
9265;DHT22;4669;49.594;10.958;2023-01-20T19:48:17;0.20;99.90
9265;DHT22;4669;49.594;10.958;2023-01-20T19:53:19;0.20;99.90
9265;DHT22;4669;49.594;10.958;2023-01-20T19:58:21;0.30;99.90
9265;DHT22;4669;49.594;10.958;2023-01-20T20:03:26;0.20;99.90
9265;DHT22;4669;49.594;10.958;2023-01-20T20:08:28;0.30;99.90
9265;DHT22;4669;49.594;10.958;2023-01-20T20:13:30;0.30;99.90
9265;DHT22;4669;49.594;10.958;2023-01-20T20:18:33;0.30;99.90
9265;DHT22;4669;49.594;10.958;2023-01-20T20:23:35;0.30;99.90
9265;DHT22;4669;49.594;10.958;2023-01-20T20:28:37;0.20;99.90
9265;DHT22;4669;49.594;10.958;2023-01-20T20:33:41;0.10;99.90
9265;DHT22;4669;49.594;10.958;2023-01-20T20:38:46;0.10;99.90
9265;DHT22;4669;49.594;10.958;2023-01-20T20:43:52;0.00;99.90
9265;DHT22;4669;49.594;10.958;2023-01-20T20:48:56;0.00;99.90
9265;DHT22;4669;49.594;10.958;2023-01-20T20:54:00;0.00;99.90
9265;DHT22;4669;49.594;10.958;2023-01-20T20:59:03;0.10;99.90
9265;DHT22;4669;49.594;10.958;2023-01-20T21:04:06;0.10;99.90
9265;DHT22;4669;49.594;10.958;2023-01-20T21:09:08;0.10;99.90
9265;DHT22;4669;49.594;10.958;2023-01-20T21:14:10;0.00;99.90
9265;DHT22;4669;49.594;10.958;2023-01-20T21:19:13;-0.10;99.90
9265;DHT22;4669;49.594;10.958;2023-01-20T21:24:16;-0.10;99.90
9265;DHT22;4669;49.594;10.958;2023-01-20T21:29:18;-0.20;99.90
9265;DHT22;4669;49.594;10.958;2023-01-20T21:34:21;-0.20;99.90
9265;DHT22;4669;49.594;10.958;2023-01-20T21:39:23;-0.40;99.90
9265;DHT22;4669;49.594;10.958;2023-01-20T21:44:25;-0.40;99.90
9265;DHT22;4669;49.594;10.958;2023-01-20T21:49:33;-0.30;99.90
9265;DHT22;4669;49.594;10.958;2023-01-20T21:54:53;-0.30;99.90
9265;DHT22;4669;49.594;10.958;2023-01-20T21:59:55;-0.40;99.90
9265;DHT22;4669;49.594;10.958;2023-01-20T22:04:58;-0.40;99.90
9265;DHT22;4669;49.594;10.958;2023-01-20T22:10:01;-0.50;99.90
9265;DHT22;4669;49.594;10.958;2023-01-20T22:15:04;-0.60;99.90
9265;DHT22;4669;49.594;10.958;2023-01-20T22:20:09;-0.60;99.90
9265;DHT22;4669;49.594;10.958;2023-01-20T22:25:11;-0.70;99.90
9265;DHT22;4669;49.594;10.958;2023-01-20T22:30:13;-0.70;99.90
9265;DHT22;4669;49.594;10.958;2023-01-20T22:35:17;-0.80;99.90
9265;DHT22;4669;49.594;10.958;2023-01-20T22:40:19;-0.80;99.90
9265;DHT22;4669;49.594;10.958;2023-01-20T22:45:21;-0.90;99.90
9265;DHT22;4669;49.594;10.958;2023-01-20T22:50:24;-0.90;99.90
9265;DHT22;4669;49.594;10.958;2023-01-20T22:55:26;-0.90;99.90
